Time;durP1;ratioP1;P1;durP2;ratioP2;P2;SDS_P1;SDS_P2;PMS_P1;PMS_P2;Temp;Humidity;BMP_temperature;BMP_pressure;BME280_temperature;BME280_humidity;BME280_pressure;Samples;Min_cycle;Max_cycle;Signal;HPM_P1;HPM_P2
2022/02/13 00:01:34;;;;;;;;;;;;;;;;;;5091269;28;19904;-68
2022/02/13 00:04:01;;;;;;;;;;;;;;;;;;5092796;28;19950;-70
2022/02/13 00:06:27;;;;;;;;;;;;;;;;;;5085088;28;19908;-67
2022/02/13 00:08:56;;;;;;;;;;;;;;;;;;5072783;28;19904;-67
2022/02/13 00:11:22;;;;;;;;;;;;;;;;;;5072651;28;19933;-67
2022/02/13 00:13:48;;;;;;;;;;;;;;;;;;5069429;28;20033;-65
2022/02/13 00:16:15;;;;;;;;;;;;;;;;;;5067811;28;19927;-65
2022/02/13 00:18:41;;;;;;;;;;;;;;;;;;5074309;28;19908;-68
2022/02/13 00:21:07;;;;;;;;;;;;;;;;;;5072619;28;19911;-71
2022/02/13 00:23:33;;;;;;;;;;;;;;;;;;5071401;28;19912;-69
2022/02/13 00:26:00;;;;;;;;;;;;;;;;;;5076396;28;20267;-70
2022/02/13 00:28:26;;;;;;;;;;;;;;;;;;5076161;28;19939;-70
2022/02/13 00:30:52;;;;;;;;;;;;;;;;;;5093980;28;19908;-70
2022/02/13 00:33:18;;;;;;;;;;;;;;;;;;5096267;28;19908;-66
2022/02/13 00:35:46;;;;;;;;;;;;;;;;;;5093433;28;19912;-68
2022/02/13 00:38:12;;;;;;;;;;;;;;;;;;5075088;28;20668;-69
2022/02/13 00:40:38;;;;;;;;;;;;;;;;;;5072079;28;20409;-71
2022/02/13 00:43:04;;;;;;;;;;;;;;;;;;5087302;28;19912;-70
2022/02/13 00:45:31;;;;;;;;;;;;;;;;;;5082842;28;19948;-71
2022/02/13 00:47:57;;;;;;;;;;;;;;;;;;5095907;28;19908;-68
2022/02/13 00:50:23;;;;;;;;;;;;;;;;;;5096504;28;19943;-69
2022/02/13 00:52:50;;;;;;;;;;;;;;;;;;5078696;28;19916;-70
2022/02/13 00:55:16;;;;;;;;;;;;;;;;;;5075773;28;19912;-69
2022/02/13 00:57:42;;;;;;;;;;;;;;;;;;5088932;28;19908;-74
2022/02/13 01:00:08;;;;;;;;;;;;;;;;;;5087975;28;20502;-68
2022/02/13 01:02:35;;;;;;;;;;;;;;;;;;5070649;28;19999;-70
2022/02/13 01:05:01;;;;;;;;;;;;;;;;;;5078544;28;20365;-68
2022/02/13 01:07:27;;;;;;;;;;;;;;;;;;5078302;28;19908;-65
2022/02/13 01:09:53;;;;;;;;;;;;;;;;;;5075629;28;20367;-66
2022/02/13 01:12:20;;;;;;;;;;;;;;;;;;5075686;28;19915;-64
2022/02/13 01:14:46;;;;;;;;;;;;;;;;;;5075333;28;19915;-68
2022/02/13 01:17:12;;;;;;;;;;;;;;;;;;5085699;28;19916;-67
2022/02/13 01:19:38;;;;;;;;;;;;;;;;;;5094064;28;19908;-69
2022/02/13 01:22:07;;;;;;;;;;;;;;;;;;5090368;28;19961;-66
2022/02/13 01:24:33;;;;;;;;;;;;;;;;;;5075569;28;19912;-68
2022/02/13 01:27:00;;;;;;;;;;;;;;;;;;5070229;28;19912;-67
2022/02/13 01:29:26;;;;;;;;;;;;;;;;;;5071036;28;19908;-68
2022/02/13 01:31:52;;;;;;;;;;;;;;;;;;5074957;28;19908;-68
2022/02/13 01:34:19;;;;;;;;;;;;;;;;;;5074841;28;19904;-68
2022/02/13 01:36:45;;;;;;;;;;;;;;;;;;5079574;28;19998;-67
2022/02/13 01:39:11;;;;;;;;;;;;;;;;;;5095486;28;19958;-66
2022/02/13 01:41:37;;;;;;;;;;;;;;;;;;5092469;28;19934;-67
2022/02/13 01:44:04;;;;;;;;;;;;;;;;;;5089638;28;19915;-67
2022/02/13 01:46:30;;;;;;;;;;;;;;;;;;5084903;28;19912;-68
2022/02/13 01:48:56;;;;;;;;;;;;;;;;;;5078027;28;20258;-69
2022/02/13 01:51:23;;;;;;;;;;;;;;;;;;5084423;28;19919;-68
2022/02/13 01:53:49;;;;;;;;;;;;;;;;;;5082930;28;20313;-65
2022/02/13 01:56:15;;;;;;;;;;;;;;;;;;5092136;28;19945;-68
2022/02/13 01:58:41;;;;;;;;;;;;;;;;;;5081155;28;19963;-67
2022/02/13 02:01:09;;;;;;;;;;;;;;;;;;5087170;28;19913;-70
2022/02/13 02:03:35;;;;;;;;;;;;;;;;;;5075663;28;19912;-69
2022/02/13 02:06:02;;;;;;;;;;;;;;;;;;5086002;28;19908;-68
2022/02/13 02:08:28;;;;;;;;;;;;;;;;;;5087841;28;19948;-69
2022/02/13 02:10:54;;;;;;;;;;;;;;;;;;5089347;28;20554;-69
2022/02/13 02:13:20;;;;;;;;;;;;;;;;;;5089702;28;20645;-68
2022/02/13 02:15:47;;;;;;;;;;;;;;;;;;5093573;28;20284;-69
2022/02/13 02:18:13;;;;;;;;;;;;;;;;;;5094283;28;19991;-68
2022/02/13 02:20:40;;;;;;;;;;;;;;;;;;5093323;28;20044;-69
2022/02/13 02:23:06;;;;;;;;;;;;;;;;;;5074213;28;19908;-68
2022/02/13 02:25:32;;;;;;;;;;;;;;;;;;5082706;28;19938;-68
2022/02/13 02:27:58;;;;;;;;;;;;;;;;;;5070628;28;19920;-69
2022/02/13 02:30:25;;;;;;;;;;;;;;;;;;5069288;28;19912;-69
2022/02/13 02:32:51;;;;;;;;;;;;;;;;;;5069138;28;20002;-69
2022/02/13 02:35:17;;;;;;;;;;;;;;;;;;5069692;28;19920;-69
2022/02/13 02:37:43;;;;;;;;;;;;;;;;;;5088884;28;19904;-69
2022/02/13 02:40:09;;;;;;;;;;;;;;;;;;5091948;28;19915;-70
2022/02/13 02:42:36;;;;;;;;;;;;;;;;;;5077319;28;19916;-70
2022/02/13 02:45:03;;;;;;;;;;;;;;;;;;5085014;28;19908;-71
2022/02/13 02:47:29;;;;;;;;;;;;;;;;;;5080415;28;19908;-70
2022/02/13 02:49:55;;;;;;;;;;;;;;;;;;5089005;28;19915;-70
2022/02/13 02:52:21;;;;;;;;;;;;;;;;;;5077015;28;19931;-70
2022/02/13 02:54:48;;;;;;;;;;;;;;;;;;5087408;28;20347;-71
2022/02/13 02:57:14;;;;;;;;;;;;;;;;;;5088407;28;19908;-70
2022/02/13 02:59:40;;;;;;;;;;;;;;;;;;5091636;28;19987;-71
2022/02/13 03:02:07;;;;;;;;;;;;;;;;;;5093032;28;19907;-71
2022/02/13 03:04:33;;;;;;;;;;;;;;;;;;5091827;28;20321;-71
2022/02/13 03:06:59;;;;;;;;;;;;;;;;;;5079185;28;20403;-70
2022/02/13 03:09:25;;;;;;;;;;;;;;;;;;5090806;28;19908;-70
2022/02/13 03:11:51;;;;;;;;;;;;;;;;;;5088829;28;19908;-70
2022/02/13 03:14:18;;;;;;;;;;;;;;;;;;5083709;28;19915;-70
2022/02/13 03:16:44;;;;;;;;;;;;;;;;;;5067961;28;19916;-70
2022/02/13 03:19:10;;;;;;;;;;;;;;;;;;5067747;28;19915;-70
2022/02/13 03:21:37;;;;;;;;;;;;;;;;;;5070349;28;19909;-67
2022/02/13 03:24:07;;;;;;;;;;;;;;;;;;5083134;28;19959;-69
2022/02/13 03:26:35;;;;;;;;;;;;;;;;;;5083311;28;20347;-70
2022/02/13 03:29:04;;;;;;;;;;;;;;;;;;5086027;28;20017;-70
2022/02/13 03:31:32;;;;;;;;;;;;;;;;;;5092296;28;19916;-69
2022/02/13 03:34:01;;;;;;;;;;;;;;;;;;5082621;28;19923;-70
2022/02/13 03:36:29;;;;;;;;;;;;;;;;;;5084101;28;19916;-70
2022/02/13 03:38:58;;;;;;;;;;;;;;;;;;5068089;28;19948;-70
2022/02/13 03:41:35;;;;;;;;;;;;;;;;;;5074755;28;19959;-70
2022/02/13 03:44:06;;;;;;;;;;;;;;;;;;5077927;28;20050;-71
2022/02/13 03:46:34;;;;;;;;;;;;;;;;;;5081280;28;19908;-68
2022/02/13 03:49:08;;;;;;;;;;;;;;;;;;5093308;28;19908;-67
2022/02/13 03:51:36;;;;;;;;;;;;;;;;;;5084178;28;19908;-70
2022/02/13 03:54:04;;;;;;;;;;;;;;;;;;5073021;28;20343;-70
2022/02/13 03:56:35;;;;;;;;;;;;;;;;;;5087235;28;19974;-71
2022/02/13 03:59:10;;;;;;;;;;;;;;;;;;5087318;28;19934;-70
2022/02/13 04:01:38;;;;;;;;;;;;;;;;;;5070518;28;19908;-69
2022/02/13 04:04:06;;;;;;;;;;;;;;;;;;5067687;28;19947;-71
2022/02/13 04:06:35;;;;;;;;;;;;;;;;;;5071854;28;20351;-71
2022/02/13 04:09:03;;;;;;;;;;;;;;;;;;5088780;28;20382;-71
2022/02/13 04:11:30;;;;;;;;;;;;;;;;;;5073483;28;19909;-70
2022/02/13 04:13:59;;;;;;;;;;;;;;;;;;5073962;28;20355;-68
2022/02/13 04:16:27;;;;;;;;;;;;;;;;;;5072562;28;19923;-68
2022/02/13 04:18:55;;;;;;;;;;;;;;;;;;5068691;28;19917;-70
2022/02/13 04:21:23;;;;;;;;;;;;;;;;;;5074314;28;19958;-70
2022/02/13 04:23:51;;;;;;;;;;;;;;;;;;5081190;28;20236;-70
2022/02/13 04:26:18;;;;;;;;;;;;;;;;;;5076516;28;20297;-66
2022/02/13 04:28:46;;;;;;;;;;;;;;;;;;5090346;28;19912;-68
2022/02/13 04:31:15;;;;;;;;;;;;;;;;;;5083427;28;19969;-71
2022/02/13 04:33:43;;;;;;;;;;;;;;;;;;5076896;28;20343;-70
2022/02/13 04:36:15;;;;;;;;;;;;;;;;;;5085909;28;20270;-70
2022/02/13 04:38:43;;;;;;;;;;;;;;;;;;5089974;28;19904;-70
2022/02/13 04:41:12;;;;;;;;;;;;;;;;;;5071287;28;19913;-70
2022/02/13 04:43:40;;;;;;;;;;;;;;;;;;5087347;28;19919;-70
2022/02/13 04:46:08;;;;;;;;;;;;;;;;;;5087161;28;19904;-70
2022/02/13 04:48:37;;;;;;;;;;;;;;;;;;5087527;28;20386;-70
2022/02/13 04:51:05;;;;;;;;;;;;;;;;;;5090482;28;19910;-71
2022/02/13 04:53:32;;;;;;;;;;;;;;;;;;5077170;28;19908;-70
2022/02/13 04:55:58;;;;;;;;;;;;;;;;;;5073483;28;19916;-71
2022/02/13 04:58:24;;;;;;;;;;;;;;;;;;5086470;28;19912;-71
2022/02/13 05:00:50;;;;;;;;;;;;;;;;;;5082360;28;20341;-70
2022/02/13 05:03:16;;;;;;;;;;;;;;;;;;5068653;28;20395;-71
2022/02/13 05:05:43;;;;;;;;;;;;;;;;;;5067237;28;19957;-70
2022/02/13 05:08:09;;;;;;;;;;;;;;;;;;5067063;28;19916;-70
2022/02/13 05:10:35;;;;;;;;;;;;;;;;;;5070723;28;19916;-70
2022/02/13 05:13:01;;;;;;;;;;;;;;;;;;5073489;28;19909;-70
2022/02/13 05:15:28;;;;;;;;;;;;;;;;;;5075673;28;19967;-70
2022/02/13 05:17:54;;;;;;;;;;;;;;;;;;5075748;28;19912;-70
2022/02/13 05:20:22;;;;;;;;;;;;;;;;;;5075714;28;19908;-68
2022/02/13 05:22:51;;;;;;;;;;;;;;;;;;5090856;28;19908;-69
2022/02/13 05:25:17;;;;;;;;;;;;;;;;;;5086388;28;20429;-68
2022/02/13 05:27:43;;;;;;;;;;;;;;;;;;5070230;28;20364;-70
2022/02/13 05:30:09;;;;;;;;;;;;;;;;;;5082759;28;19912;-70
2022/02/13 05:32:36;;;;;;;;;;;;;;;;;;5090267;28;20398;-70
2022/02/13 05:35:02;;;;;;;;;;;;;;;;;;5080731;28;19978;-71
2022/02/13 05:37:29;;;;;;;;;;;;;;;;;;5082793;28;19916;-68
2022/02/13 05:39:55;;;;;;;;;;;;;;;;;;5092439;28;20008;-70
2022/02/13 05:42:23;;;;;;;;;;;;;;;;;;5081373;28;19908;-66
2022/02/13 05:44:50;;;;;;;;;;;;;;;;;;5095491;28;19907;-66
2022/02/13 05:47:16;;;;;;;;;;;;;;;;;;5093033;28;19961;-70
2022/02/13 05:49:42;;;;;;;;;;;;;;;;;;5089812;28;19908;-71
2022/02/13 05:52:09;;;;;;;;;;;;;;;;;;5082789;28;19915;-72
2022/02/13 05:54:35;;;;;;;;;;;;;;;;;;5069921;28;19908;-71
2022/02/13 05:57:01;;;;;;;;;;;;;;;;;;5071376;28;20325;-71
2022/02/13 05:59:27;;;;;;;;;;;;;;;;;;5074527;28;19935;-72
2022/02/13 06:01:54;;;;;;;;;;;;;;;;;;5088150;28;19934;-71
2022/02/13 06:04:20;;;;;;;;;;;;;;;;;;5090510;28;20007;-71
2022/02/13 06:06:46;;;;;;;;;;;;;;;;;;5074499;28;19947;-71
2022/02/13 06:09:12;;;;;;;;;;;;;;;;;;5072610;28;19908;-72
2022/02/13 06:11:39;;;;;;;;;;;;;;;;;;5069361;28;20266;-71
2022/02/13 06:14:05;;;;;;;;;;;;;;;;;;5069475;28;19911;-72
2022/02/13 06:16:31;;;;;;;;;;;;;;;;;;5069016;28;19955;-72
2022/02/13 06:18:57;;;;;;;;;;;;;;;;;;5070369;28;19927;-72
2022/02/13 06:21:24;;;;;;;;;;;;;;;;;;5073357;28;20652;-71
2022/02/13 06:23:50;;;;;;;;;;;;;;;;;;5080728;28;19908;-72
2022/02/13 06:26:16;;;;;;;;;;;;;;;;;;5094171;28;19910;-71
2022/02/13 06:28:42;;;;;;;;;;;;;;;;;;5094503;28;19954;-71
2022/02/13 06:31:09;;;;;;;;;;;;;;;;;;5088516;28;19908;-71
2022/02/13 06:33:35;;;;;;;;;;;;;;;;;;5068601;28;19965;-72
2022/02/13 06:36:01;;;;;;;;;;;;;;;;;;5068780;28;20014;-72
2022/02/13 06:38:27;;;;;;;;;;;;;;;;;;5084350;28;19912;-71
2022/02/13 06:40:53;;;;;;;;;;;;;;;;;;5089403;28;19904;-71
2022/02/13 06:43:20;;;;;;;;;;;;;;;;;;5075238;28;19963;-71
2022/02/13 06:45:46;;;;;;;;;;;;;;;;;;5074006;28;19905;-71
2022/02/13 06:48:12;;;;;;;;;;;;;;;;;;5078764;28;19908;-71
2022/02/13 06:50:38;;;;;;;;;;;;;;;;;;5093424;28;19908;-72
2022/02/13 06:53:05;;;;;;;;;;;;;;;;;;5091970;28;19908;-71
2022/02/13 06:55:31;;;;;;;;;;;;;;;;;;5075611;28;20344;-71
2022/02/13 06:57:57;;;;;;;;;;;;;;;;;;5068300;28;20322;-71
2022/02/13 07:00:23;;;;;;;;;;;;;;;;;;5068569;28;20397;-70
2022/02/13 07:02:49;;;;;;;;;;;;;;;;;;5084157;28;20399;-71
2022/02/13 07:05:16;;;;;;;;;;;;;;;;;;5073394;28;19908;-71
2022/02/13 07:07:42;;;;;;;;;;;;;;;;;;5087158;28;19915;-71
2022/02/13 07:10:08;;;;;;;;;;;;;;;;;;5092897;28;19911;-71
2022/02/13 07:12:34;;;;;;;;;;;;;;;;;;5093432;28;19955;-71
2022/02/13 07:15:01;;;;;;;;;;;;;;;;;;5084880;28;19920;-71
2022/02/13 07:17:27;;;;;;;;;;;;;;;;;;5068180;28;19919;-70
2022/02/13 07:19:53;;;;;;;;;;;;;;;;;;5068200;28;19965;-71
2022/02/13 07:22:21;;;;;;;;;;;;;;;;;;5067852;28;19955;-70
2022/02/13 07:24:48;;;;;;;;;;;;;;;;;;5067536;28;19992;-71
2022/02/13 07:27:14;;;;;;;;;;;;;;;;;;5073369;28;19908;-71
2022/02/13 07:29:40;;;;;;;;;;;;;;;;;;5072870;28;19924;-71
2022/02/13 07:32:06;;;;;;;;;;;;;;;;;;5072738;28;19935;-71
2022/02/13 07:34:32;;;;;;;;;;;;;;;;;;5073037;28;19993;-70
2022/02/13 07:37:02;;;;;;;;;;;;;;;;;;5081058;28;19938;-71
2022/02/13 07:39:28;;;;;;;;;;;;;;;;;;5088589;28;19904;-70
2022/02/13 07:41:54;;;;;;;;;;;;;;;;;;5077000;28;19916;-71
2022/02/13 07:44:21;;;;;;;;;;;;;;;;;;5067814;28;19908;-71
2022/02/13 07:46:47;;;;;;;;;;;;;;;;;;5067530;28;20367;-71
2022/02/13 07:49:13;;;;;;;;;;;;;;;;;;5071282;28;19908;-71
2022/02/13 07:51:39;;;;;;;;;;;;;;;;;;5072845;28;19909;-71
2022/02/13 07:54:06;;;;;;;;;;;;;;;;;;5073060;28;19916;-71
2022/02/13 07:56:32;;;;;;;;;;;;;;;;;;5072397;28;19924;-71
2022/02/13 07:58:58;;;;;;;;;;;;;;;;;;5072597;28;19932;-71
2022/02/13 08:01:25;;;;;;;;;;;;;;;;;;5068927;28;20010;-71
2022/02/13 08:03:51;;;;;;;;;;;;;;;;;;5067299;28;19915;-71
2022/02/13 08:06:18;;;;;;;;;;;;;;;;;;5067248;28;21872;-71
2022/02/13 08:08:45;;;;;;;;;;;;;;;;;;5079323;28;19951;-71
2022/02/13 08:11:12;;;;;;;;;;;;;;;;;;5090528;28;19915;-71
2022/02/13 08:13:38;;;;;;;;;;;;;;;;;;5092184;28;19908;-71
2022/02/13 08:16:05;;;;;;;;;;;;;;;;;;5092310;28;20316;-71
2022/02/13 08:18:31;;;;;;;;;;;;;;;;;;5092333;28;19908;-71
2022/02/13 08:20:57;;;;;;;;;;;;;;;;;;5092726;28;20302;-71
2022/02/13 08:23:23;;;;;;;;;;;;;;;;;;5088576;28;19919;-71
2022/02/13 08:25:50;;;;;;;;;;;;;;;;;;5069664;28;20296;-71
2022/02/13 08:28:16;;;;;;;;;;;;;;;;;;5086973;28;19908;-71
2022/02/13 08:30:42;;;;;;;;;;;;;;;;;;5087098;28;19908;-71
2022/02/13 08:33:09;;;;;;;;;;;;;;;;;;5089419;28;19908;-71
2022/02/13 08:35:35;;;;;;;;;;;;;;;;;;5092131;28;19911;-71
2022/02/13 08:38:01;;;;;;;;;;;;;;;;;;5075946;28;20271;-71
2022/02/13 08:40:27;;;;;;;;;;;;;;;;;;5087048;28;20414;-71
2022/02/13 08:42:54;;;;;;;;;;;;;;;;;;5081875;28;19915;-71
2022/02/13 08:45:20;;;;;;;;;;;;;;;;;;5072237;28;19904;-71
2022/02/13 08:47:46;;;;;;;;;;;;;;;;;;5081986;28;19908;-71
2022/02/13 08:50:12;;;;;;;;;;;;;;;;;;5078920;28;19998;-71
2022/02/13 08:52:38;;;;;;;;;;;;;;;;;;5090281;28;19955;-70
2022/02/13 08:55:05;;;;;;;;;;;;;;;;;;5087139;28;19950;-70
2022/02/13 08:57:31;;;;;;;;;;;;;;;;;;5075912;28;19974;-71
2022/02/13 08:59:57;;;;;;;;;;;;;;;;;;5076149;28;20270;-71
2022/02/13 09:02:23;;;;;;;;;;;;;;;;;;5075943;28;19904;-71
2022/02/13 09:04:50;;;;;;;;;;;;;;;;;;5075565;28;19909;-71
2022/02/13 09:07:16;;;;;;;;;;;;;;;;;;5073832;28;19909;-70
2022/02/13 09:09:44;;;;;;;;;;;;;;;;;;5071018;28;20069;-70
2022/02/13 09:12:10;;;;;;;;;;;;;;;;;;5072232;28;20328;-70
2022/02/13 09:14:37;;;;;;;;;;;;;;;;;;5090102;28;19947;-70
2022/02/13 09:17:03;;;;;;;;;;;;;;;;;;5091759;28;19922;-70
2022/02/13 09:19:29;;;;;;;;;;;;;;;;;;5095288;28;19911;-70
2022/02/13 09:21:55;;;;;;;;;;;;;;;;;;5095345;28;19908;-71
2022/02/13 09:24:22;;;;;;;;;;;;;;;;;;5095834;28;20006;-71
2022/02/13 09:26:48;;;;;;;;;;;;;;;;;;5095026;28;19908;-71
2022/02/13 09:29:14;;;;;;;;;;;;;;;;;;5094283;28;19912;-70
2022/02/13 09:31:40;;;;;;;;;;;;;;;;;;5089991;28;19911;-71
2022/02/13 09:34:07;;;;;;;;;;;;;;;;;;5090408;28;19927;-71
2022/02/13 09:36:33;;;;;;;;;;;;;;;;;;5083822;28;20388;-70
2022/02/13 09:38:59;;;;;;;;;;;;;;;;;;5070456;28;20344;-70
2022/02/13 09:41:26;;;;;;;;;;;;;;;;;;5075096;28;19912;-70
2022/02/13 09:43:54;;;;;;;;;;;;;;;;;;5093401;28;19981;-70
2022/02/13 09:46:21;;;;;;;;;;;;;;;;;;5094879;28;19908;-70
2022/02/13 09:48:47;;;;;;;;;;;;;;;;;;5090302;28;19909;-70
2022/02/13 09:51:13;;;;;;;;;;;;;;;;;;5074138;28;19904;-70
2022/02/13 09:53:39;;;;;;;;;;;;;;;;;;5069366;28;19971;-71
2022/02/13 09:56:06;;;;;;;;;;;;;;;;;;5069534;28;20501;-71
2022/02/13 09:58:32;;;;;;;;;;;;;;;;;;5069745;28;20608;-71
2022/02/13 10:00:58;;;;;;;;;;;;;;;;;;5070621;28;19908;-70
2022/02/13 10:03:24;;;;;;;;;;;;;;;;;;5084129;28;19908;-70
2022/02/13 10:05:51;;;;;;;;;;;;;;;;;;5094594;28;19995;-70
2022/02/13 10:08:17;;;;;;;;;;;;;;;;;;5094591;28;19915;-70
2022/02/13 10:10:43;;;;;;;;;;;;;;;;;;5094161;28;19914;-70
2022/02/13 10:13:09;;;;;;;;;;;;;;;;;;5094288;28;20091;-70
2022/02/13 10:15:35;;;;;;;;;;;;;;;;;;5072630;28;19916;-70
2022/02/13 10:18:02;;;;;;;;;;;;;;;;;;5069232;28;19908;-70
2022/02/13 10:20:28;;;;;;;;;;;;;;;;;;5051638;28;20324;-70
2022/02/13 10:22:55;;;;;;;;;;;;;;;;;;5068902;28;19908;-70
2022/02/13 10:25:21;;;;;;;;;;;;;;;;;;5073958;28;19908;-70
2022/02/13 10:27:47;;;;;;;;;;;;;;;;;;5077572;28;19907;-70
2022/02/13 10:30:13;;;;;;;;;;;;;;;;;;5094421;28;19908;-70
2022/02/13 10:32:41;;;;;;;;;;;;;;;;;;5091421;28;20011;-70
2022/02/13 10:35:07;;;;;;;;;;;;;;;;;;5074065;28;20351;-70
2022/02/13 10:37:34;;;;;;;;;;;;;;;;;;5074104;28;19927;-70
2022/02/13 10:40:00;;;;;;;;;;;;;;;;;;5076223;28;20007;-70
2022/02/13 10:42:26;;;;;;;;;;;;;;;;;;5084131;28;19912;-70
2022/02/13 10:44:52;;;;;;;;;;;;;;;;;;5085514;28;19916;-70
2022/02/13 10:47:19;;;;;;;;;;;;;;;;;;5072760;28;19999;-70
2022/02/13 10:49:45;;;;;;;;;;;;;;;;;;5073896;28;19962;-70
2022/02/13 10:52:11;;;;;;;;;;;;;;;;;;5078763;28;19915;-70
2022/02/13 10:54:38;;;;;;;;;;;;;;;;;;5093779;28;20248;-70
2022/02/13 10:57:04;;;;;;;;;;;;;;;;;;5093521;28;19916;-70
2022/02/13 10:59:31;;;;;;;;;;;;;;;;;;5076485;28;20413;-70
2022/02/13 11:01:57;;;;;;;;;;;;;;;;;;5068496;28;19962;-70
2022/02/13 11:04:24;;;;;;;;;;;;;;;;;;5084309;28;19957;-70
2022/02/13 11:06:50;;;;;;;;;;;;;;;;;;5085290;28;20258;-70
2022/02/13 11:09:17;;;;;;;;;;;;;;;;;;5071869;28;19931;-70
2022/02/13 11:11:43;;;;;;;;;;;;;;;;;;5073460;28;20003;-70
2022/02/13 11:14:09;;;;;;;;;;;;;;;;;;5072945;28;19912;-70
2022/02/13 11:16:36;;;;;;;;;;;;;;;;;;5083722;28;19916;-70
2022/02/13 11:19:02;;;;;;;;;;;;;;;;;;5093794;28;19908;-70
2022/02/13 11:21:29;;;;;;;;;;;;;;;;;;5089329;28;20001;-70
2022/02/13 11:23:55;;;;;;;;;;;;;;;;;;5088407;28;19954;-70
2022/02/13 11:26:22;;;;;;;;;;;;;;;;;;5088103;28;19908;-70
2022/02/13 11:28:50;;;;;;;;;;;;;;;;;;5087511;28;19912;-70
2022/02/13 11:31:16;;;;;;;;;;;;;;;;;;5090954;28;19946;-70
2022/02/13 11:33:42;;;;;;;;;;;;;;;;;;5091023;28;19912;-69
2022/02/13 11:36:09;;;;;;;;;;;;;;;;;;5093325;28;19998;-70
2022/02/13 11:38:35;;;;;;;;;;;;;;;;;;5078557;28;19912;-70
2022/02/13 11:41:01;;;;;;;;;;;;;;;;;;5055216;28;20334;-70
2022/02/13 11:43:27;;;;;;;;;;;;;;;;;;5085777;28;20392;-70
2022/02/13 11:45:53;;;;;;;;;;;;;;;;;;5087670;28;19908;-70
2022/02/13 11:48:20;;;;;;;;;;;;;;;;;;5079881;28;19915;-70
2022/02/13 11:50:46;;;;;;;;;;;;;;;;;;5067625;28;19914;-70
2022/02/13 11:53:12;;;;;;;;;;;;;;;;;;5071322;28;19954;-70
2022/02/13 11:55:38;;;;;;;;;;;;;;;;;;5072604;28;19974;-70
2022/02/13 11:58:08;;;;;;;;;;;;;;;;;;5072767;28;20359;-70
2022/02/13 12:00:34;;;;;;;;;;;;;;;;;;5072830;28;19951;-70
2022/02/13 12:03:00;;;;;;;;;;;;;;;;;;5072228;28;19940;-70
2022/02/13 12:05:26;;;;;;;;;;;;;;;;;;5089398;28;19904;-70
2022/02/13 12:07:58;;;;;;;;;;;;;;;;;;5085297;28;20317;-70
2022/02/13 12:10:24;;;;;;;;;;;;;;;;;;5067357;28;20359;-70
2022/02/13 12:12:50;;;;;;;;;;;;;;;;;;5067421;28;19912;-70
2022/02/13 12:15:17;;;;;;;;;;;;;;;;;;5069578;28;19987;-70
2022/02/13 12:17:43;;;;;;;;;;;;;;;;;;5089625;28;20335;-70
2022/02/13 12:20:09;;;;;;;;;;;;;;;;;;5089665;28;20417;-70
2022/02/13 12:22:36;;;;;;;;;;;;;;;;;;5076385;28;19919;-69
2022/02/13 12:25:02;;;;;;;;;;;;;;;;;;5076645;28;19905;-70
2022/02/13 12:27:28;;;;;;;;;;;;;;;;;;5073935;28;19912;-70
2022/02/13 12:29:54;;;;;;;;;;;;;;;;;;5090886;28;19994;-70
2022/02/13 12:32:20;;;;;;;;;;;;;;;;;;5091589;28;19908;-70
2022/02/13 12:34:47;;;;;;;;;;;;;;;;;;5076252;28;19910;-70
2022/02/13 12:37:13;;;;;;;;;;;;;;;;;;5073014;28;19920;-70
2022/02/13 12:39:39;;;;;;;;;;;;;;;;;;5088803;28;19919;-70
2022/02/13 12:42:05;;;;;;;;;;;;;;;;;;5096693;28;19908;-70
2022/02/13 12:44:32;;;;;;;;;;;;;;;;;;5076443;28;19908;-70
2022/02/13 12:46:58;;;;;;;;;;;;;;;;;;5076309;28;20332;-70
2022/02/13 12:49:24;;;;;;;;;;;;;;;;;;5074300;28;20647;-70
2022/02/13 12:51:50;;;;;;;;;;;;;;;;;;5083476;28;19930;-70
2022/02/13 12:54:18;;;;;;;;;;;;;;;;;;5090880;28;19961;-70
2022/02/13 12:56:44;;;;;;;;;;;;;;;;;;5090936;28;19912;-70
2022/02/13 12:59:10;;;;;;;;;;;;;;;;;;5082611;28;20015;-70
2022/02/13 13:01:37;;;;;;;;;;;;;;;;;;5092761;28;20389;-70
2022/02/13 13:04:04;;;;;;;;;;;;;;;;;;5087776;28;20366;-70
2022/02/13 13:06:32;;;;;;;;;;;;;;;;;;5095825;28;19991;-70
2022/02/13 13:08:59;;;;;;;;;;;;;;;;;;5095434;28;19908;-70
2022/02/13 13:11:25;;;;;;;;;;;;;;;;;;5094058;28;20552;-70
2022/02/13 13:13:51;;;;;;;;;;;;;;;;;;5090346;28;19908;-70
2022/02/13 13:16:24;;;;;;;;;;;;;;;;;;5090272;28;19945;-70
2022/02/13 13:18:54;;;;;;;;;;;;;;;;;;5090689;28;19955;-70
2022/02/13 13:21:23;;;;;;;;;;;;;;;;;;5085363;28;19908;-70
2022/02/13 13:23:49;;;;;;;;;;;;;;;;;;5094944;28;19970;-70
2022/02/13 13:26:16;;;;;;;;;;;;;;;;;;5095890;28;20259;-70
2022/02/13 13:28:42;;;;;;;;;;;;;;;;;;5095318;28;20347;-70
2022/02/13 13:31:08;;;;;;;;;;;;;;;;;;5085828;28;19908;-70
2022/02/13 13:33:34;;;;;;;;;;;;;;;;;;5081310;28;19999;-70
2022/02/13 13:36:01;;;;;;;;;;;;;;;;;;5086852;28;20020;-69
2022/02/13 13:38:27;;;;;;;;;;;;;;;;;;5069611;28;19917;-69
2022/02/13 13:40:53;;;;;;;;;;;;;;;;;;5070180;28;19904;-70
2022/02/13 13:43:19;;;;;;;;;;;;;;;;;;5076168;28;20155;-70
2022/02/13 13:45:46;;;;;;;;;;;;;;;;;;5095066;28;19908;-70
2022/02/13 13:48:12;;;;;;;;;;;;;;;;;;5094994;28;19991;-70
2022/02/13 13:50:38;;;;;;;;;;;;;;;;;;5095242;28;20309;-70
2022/02/13 13:53:04;;;;;;;;;;;;;;;;;;5094808;28;19961;-70
2022/02/13 13:55:31;;;;;;;;;;;;;;;;;;5074456;28;19923;-71
2022/02/13 13:57:57;;;;;;;;;;;;;;;;;;5069696;28;19912;-71
2022/02/13 14:00:23;;;;;;;;;;;;;;;;;;5069777;28;19987;-71
2022/02/13 14:02:49;;;;;;;;;;;;;;;;;;5069709;28;19911;-70
2022/02/13 14:05:16;;;;;;;;;;;;;;;;;;5069569;28;19908;-70
2022/02/13 14:07:42;;;;;;;;;;;;;;;;;;5074745;28;19908;-70
2022/02/13 14:10:08;;;;;;;;;;;;;;;;;;5074353;28;19912;-71
2022/02/13 14:12:35;;;;;;;;;;;;;;;;;;5074674;28;19904;-70
2022/02/13 14:15:01;;;;;;;;;;;;;;;;;;5093976;28;19965;-70
2022/02/13 14:17:28;;;;;;;;;;;;;;;;;;5094372;28;19951;-70
2022/02/13 14:19:54;;;;;;;;;;;;;;;;;;5089174;28;19923;-70
2022/02/13 14:22:20;;;;;;;;;;;;;;;;;;5077073;28;20385;-70
2022/02/13 14:24:47;;;;;;;;;;;;;;;;;;5074901;28;19912;-70
2022/02/13 14:27:13;;;;;;;;;;;;;;;;;;5088656;28;19920;-70
2022/02/13 14:29:39;;;;;;;;;;;;;;;;;;5081650;28;19908;-69
2022/02/13 14:32:05;;;;;;;;;;;;;;;;;;5093436;28;19904;-66
2022/02/13 14:34:32;;;;;;;;;;;;;;;;;;5088608;28;19911;-68
2022/02/13 14:36:58;;;;;;;;;;;;;;;;;;5086273;28;19915;-69
2022/02/13 14:39:24;;;;;;;;;;;;;;;;;;5094161;28;19912;-67
2022/02/13 14:41:51;;;;;;;;;;;;;;;;;;5088190;28;19957;-68
2022/02/13 14:44:17;;;;;;;;;;;;;;;;;;5088968;28;19904;-65
2022/02/13 14:46:43;;;;;;;;;;;;;;;;;;5089094;28;20011;-71
2022/02/13 14:49:09;;;;;;;;;;;;;;;;;;5089259;28;19931;-70
2022/02/13 14:51:35;;;;;;;;;;;;;;;;;;5093381;28;20282;-70
2022/02/13 14:54:02;;;;;;;;;;;;;;;;;;5094187;28;20335;-70
2022/02/13 14:56:28;;;;;;;;;;;;;;;;;;5093865;28;19916;-70
2022/02/13 14:58:54;;;;;;;;;;;;;;;;;;5094087;28;19947;-70
2022/02/13 15:01:20;;;;;;;;;;;;;;;;;;5093956;28;19911;-70
2022/02/13 15:03:48;;;;;;;;;;;;;;;;;;5089654;28;19911;-70
2022/02/13 15:06:15;;;;;;;;;;;;;;;;;;5088852;28;20284;-70
2022/02/13 15:08:41;;;;;;;;;;;;;;;;;;5089042;28;19904;-70
2022/02/13 15:11:07;;;;;;;;;;;;;;;;;;5088785;28;19907;-71
2022/02/13 15:13:35;;;;;;;;;;;;;;;;;;5092411;28;19905;-70
2022/02/13 15:16:01;;;;;;;;;;;;;;;;;;5093229;28;19916;-71
2022/02/13 15:18:28;;;;;;;;;;;;;;;;;;5093874;28;19910;-71
2022/02/13 15:20:54;;;;;;;;;;;;;;;;;;5094347;28;20311;-71
2022/02/13 15:23:20;;;;;;;;;;;;;;;;;;5086849;28;19915;-71
2022/02/13 15:25:46;;;;;;;;;;;;;;;;;;5069474;28;19905;-71
2022/02/13 15:28:12;;;;;;;;;;;;;;;;;;5068129;28;19904;-71
2022/02/13 15:30:39;;;;;;;;;;;;;;;;;;5068195;28;20247;-71
2022/02/13 15:33:05;;;;;;;;;;;;;;;;;;5067689;28;19995;-71
2022/02/13 15:35:31;;;;;;;;;;;;;;;;;;5071154;28;19913;-71
2022/02/13 15:37:57;;;;;;;;;;;;;;;;;;5073144;28;19912;-71
2022/02/13 15:40:24;;;;;;;;;;;;;;;;;;5073109;28;19913;-71
2022/02/13 15:42:50;;;;;;;;;;;;;;;;;;5078632;28;19911;-66
2022/02/13 15:45:16;;;;;;;;;;;;;;;;;;5078739;28;20347;-65
2022/02/13 15:47:42;;;;;;;;;;;;;;;;;;5070134;28;20351;-65
2022/02/13 15:50:09;;;;;;;;;;;;;;;;;;5087592;28;20370;-64
2022/02/13 15:52:35;;;;;;;;;;;;;;;;;;5087537;28;20019;-65
2022/02/13 15:55:01;;;;;;;;;;;;;;;;;;5087587;28;19945;-66
2022/02/13 15:57:27;;;;;;;;;;;;;;;;;;5078064;28;19923;-65
2022/02/13 15:59:55;;;;;;;;;;;;;;;;;;5074462;28;19908;-64
2022/02/13 16:02:21;;;;;;;;;;;;;;;;;;5072773;28;19908;-67
2022/02/13 16:04:47;;;;;;;;;;;;;;;;;;5089538;28;20363;-70
2022/02/13 16:07:13;;;;;;;;;;;;;;;;;;5091014;28;19965;-69
2022/02/13 16:09:41;;;;;;;;;;;;;;;;;;5089403;28;19912;-66
2022/02/13 16:12:07;;;;;;;;;;;;;;;;;;5085937;28;19955;-70
2022/02/13 16:14:33;;;;;;;;;;;;;;;;;;5067698;28;19909;-64
2022/02/13 16:16:59;;;;;;;;;;;;;;;;;;5067669;28;20055;-66
2022/02/13 16:19:26;;;;;;;;;;;;;;;;;;5069900;28;19912;-68
2022/02/13 16:21:52;;;;;;;;;;;;;;;;;;5071982;28;20271;-67
2022/02/13 16:24:18;;;;;;;;;;;;;;;;;;5072433;28;19926;-66
2022/02/13 16:26:44;;;;;;;;;;;;;;;;;;5072533;28;19944;-65
2022/02/13 16:29:10;;;;;;;;;;;;;;;;;;5085417;28;20236;-67
2022/02/13 16:31:37;;;;;;;;;;;;;;;;;;5089628;28;19915;-65
2022/02/13 16:34:03;;;;;;;;;;;;;;;;;;5076472;28;20240;-66
2022/02/13 16:36:29;;;;;;;;;;;;;;;;;;5072350;28;19971;-64
2022/02/13 16:38:55;;;;;;;;;;;;;;;;;;5086555;28;19916;-68
2022/02/13 16:41:22;;;;;;;;;;;;;;;;;;5089431;28;19929;-65